X  Cerrar Datos meteorológicos de aviación METAR     LIPX Verona-Villafranca Valerio Catullo Airport
Temperatura
4°C Temperatura
1°C Punto de rocío
81% Humedad



Viento
1 MPH
2 KM/H
0 M/S
1 NUDO



Calma
N
Condiciones actuales

Claro Claro
Presión 1006.77 (hPa) - 29.73 (inHg)
Visibilidad 6 (milla) - 9.7 (km)
Aeropuerto
Código de aeropuerto LIPX

localidad: Verona-Villafranca Valerio Catullo Airport
Distancia: 0 (mi)

Metar:
LIPX 200350Z VRB01KT CAVOK 04/01 Q1007

Hora: 20-04-2024 03:50 CEST